Wetterdaten: Woche 04.07.16 - 10.07.16 (KW27)
Datum Zeit Temp. A. Feuchte A. Luftdruck Regen Wind Richtung Taupunkt Windchill Windben
04.07.2016 00:00 18,2 C 64 % 1020,9 hPa 0,0 l/m 4,8 km/h N 11,3 C 18,2 C 15,3 km/h
04.07.2016 01:00 17,2 C 68 % 1021,2 hPa 0,0 l/m 0,8 km/h N 11,1 C 17,2 C 4,8 km/h
04.07.2016 02:00 16,5 C 70 % 1021,0 hPa 0,0 l/m 0,0 km/h N 11,1 C 16,5 C 7,2 km/h
04.07.2016 03:00 16,4 C 71 % 1021,1 hPa 0,0 l/m 0,0 km/h N 11,0 C 16,4 C 5,6 km/h
04.07.2016 04:00 15,3 C 75 % 1021,1 hPa 0,0 l/m 0,0 km/h N 10,8 C 15,3 C 0,8 km/h
04.07.2016 05:00 13,6 C 78 % 1021,3 hPa 0,0 l/m 0,0 km/h N 9,7 C 13,6 C 0,0 km/h
04.07.2016 06:00 13,2 C 82 % 1021,7 hPa 0,0 l/m 0,0 km/h N 10,1 C 13,2 C 0,0 km/h
04.07.2016 07:00 14,5 C 82 % 1022,0 hPa 0,0 l/m 0,0 km/h N 11,4 C 14,5 C 0,8 km/h
04.07.2016 08:00 17,8 C 69 % 1022,0 hPa 0,0 l/m 1,6 km/h N 11,9 C 17,8 C 12,1 km/h
04.07.2016 09:00 20,1 C 60 % 1021,7 hPa 0,0 l/m 2,4 km/h N 12,0 C 20,1 C 12,9 km/h
04.07.2016 10:00 20,9 C 56 % 1021,5 hPa 0,0 l/m 4,0 km/h N 11,8 C 20,9 C 17,7 km/h
04.07.2016 11:00 21,9 C 56 % 1021,3 hPa 0,0 l/m 3,2 km/h N 12,5 C 21,9 C 16,9 km/h
04.07.2016 12:00 22,6 C 54 % 1020,8 hPa 0,0 l/m 3,2 km/h N 12,7 C 22,6 C 20,9 km/h
04.07.2016 13:00 23,6 C 54 % 1020,2 hPa 0,0 l/m 3,2 km/h N 13,7 C 23,6 C 16,1 km/h
04.07.2016 14:00 24,2 C 50 % 1019,9 hPa 0,0 l/m 0,8 km/h N 13,0 C 24,2 C 8,0 km/h
04.07.2016 15:00 24,1 C 51 % 1019,6 hPa 0,0 l/m 0,0 km/h N 13,4 C 24,1 C 5,6 km/h
04.07.2016 16:00 25,0 C 49 % 1019,1 hPa 0,0 l/m 1,6 km/h N 13,3 C 25,0 C 7,2 km/h
04.07.2016 17:00 24,5 C 50 % 1018,8 hPa 0,0 l/m 1,6 km/h N 13,2 C 24,5 C 12,9 km/h
04.07.2016 18:00 23,8 C 53 % 1018,8 hPa 0,0 l/m 0,0 km/h N 13,6 C 23,8 C 3,2 km/h
04.07.2016 19:00 24,7 C 50 % 1018,5 hPa 0,0 l/m 0,0 km/h N 13,5 C 24,7 C 4,8 km/h
04.07.2016 20:00 23,7 C 53 % 1018,5 hPa 0,0 l/m 0,0 km/h N 13,5 C 23,7 C 4,0 km/h
04.07.2016 21:00 21,3 C 62 % 1018,7 hPa 0,0 l/m 0,0 km/h N 13,6 C 21,3 C 0,8 km/h
04.07.2016 22:00 18,5 C 70 % 1018,8 hPa 0,0 l/m 0,0 km/h N 12,9 C 18,5 C 0,0 km/h
04.07.2016 23:00 17,0 C 76 % 1018,9 hPa 0,0 l/m 0,0 km/h N 12,7 C 17,0 C 0,0 km/h
05.07.2016 00:00 16,7 C 79 % 1019,0 hPa 0,0 l/m 0,0 km/h N 13,0 C 16,7 C 0,8 km/h
05.07.2016 01:00 16,3 C 79 % 1018,9 hPa 0,0 l/m 0,0 km/h N 12,5 C 16,3 C 1,6 km/h
05.07.2016 02:00 15,8 C 80 % 1018,5 hPa 0,0 l/m 0,0 km/h N 12,2 C 15,8 C 0,8 km/h
05.07.2016 03:00 15,0 C 81 % 1018,1 hPa 0,0 l/m 0,0 km/h N 11,7 C 15,0 C 0,8 km/h
05.07.2016 04:00 14,8 C 82 % 1017,4 hPa 0,0 l/m 0,0 km/h N 11,7 C 14,8 C 0,0 km/h
05.07.2016 05:00 14,3 C 82 % 1017,2 hPa 0,0 l/m 0,0 km/h N 11,2 C 14,3 C 0,0 km/h
05.07.2016 06:00 14,6 C 82 % 1016,8 hPa 0,0 l/m 0,0 km/h N 11,6 C 14,6 C 0,0 km/h
05.07.2016 07:00 15,5 C 82 % 1016,7 hPa 0,0 l/m 0,0 km/h N 12,4 C 15,5 C 0,0 km/h
05.07.2016 08:00 17,9 C 81 % 1016,5 hPa 0,0 l/m 0,0 km/h N 14,5 C 17,9 C 1,6 km/h
05.07.2016 09:00 21,2 C 72 % 1016,1 hPa 0,0 l/m 0,0 km/h N 15,8 C 21,2 C 4,8 km/h
05.07.2016 10:00 24,3 C 64 % 1015,5 hPa 0,0 l/m 0,8 km/h N 17,0 C 24,3 C 5,6 km/h
05.07.2016 11:00 26,4 C 58 % 1015,3 hPa 0,0 l/m 0,0 km/h N 17,4 C 26,4 C 8,1 km/h
05.07.2016 12:00 27,3 C 55 % 1014,7 hPa 0,0 l/m 0,8 km/h N 17,5 C 27,3 C 7,2 km/h
05.07.2016 13:00 27,3 C 53 % 1014,3 hPa 0,0 l/m 0,8 km/h N 16,9 C 27,3 C 7,3 km/h
05.07.2016 14:00 28,2 C 53 % 1013,4 hPa 0,0 l/m 0,8 km/h N 17,5 C 28,2 C 8,0 km/h
05.07.2016 15:00 29,3 C 48 % 1012,6 hPa 0,0 l/m 0,0 km/h N 17,0 C 29,3 C 5,6 km/h
05.07.2016 16:00 28,0 C 48 % 1012,3 hPa 0,0 l/m 1,6 km/h N 15,8 C 28,0 C 12,1 km/h
05.07.2016 17:00 28,6 C 40 % 1011,9 hPa 0,0 l/m 0,8 km/h N 13,6 C 28,6 C 8,9 km/h
05.07.2016 18:00 29,1 C 41 % 1011,7 hPa 0,0 l/m 1,6 km/h N 14,2 C 29,1 C 9,6 km/h
05.07.2016 19:00 27,0 C 52 % 1011,3 hPa 0,0 l/m 2,4 km/h N 16,1 C 27,0 C 14,5 km/h
05.07.2016 20:00 26,3 C 55 % 1010,9 hPa 0,0 l/m 0,0 km/h N 16,4 C 26,3 C 4,0 km/h
05.07.2016 21:00 24,3 C 62 % 1011,3 hPa 0,0 l/m 0,0 km/h N 16,4 C 24,3 C 0,8 km/h
05.07.2016 22:00 21,7 C 69 % 1011,4 hPa 0,0 l/m 0,0 km/h N 15,6 C 21,7 C 0,0 km/h
05.07.2016 23:00 20,5 C 73 % 1011,3 hPa 0,0 l/m 0,0 km/h N 15,4 C 20,5 C 0,8 km/h
06.07.2016 00:00 20,1 C 74 % 1011,5 hPa 0,0 l/m 0,0 km/h N 15,3 C 20,1 C 3,2 km/h
06.07.2016 01:00 21,3 C 67 % 1012,2 hPa 0,0 l/m 1,6 km/h N 14,8 C 21,3 C 11,3 km/h
06.07.2016 02:00 21,8 C 65 % 1012,3 hPa 0,0 l/m 0,8 km/h N 14,8 C 21,8 C 15,3 km/h
06.07.2016 03:00 22,1 C 60 % 1012,6 hPa 0,0 l/m 9,6 km/h N 14,0 C 21,2 C 29,0 km/h
06.07.2016 04:00 21,2 C 56 % 1012,8 hPa 0,0 l/m 15,3 km/h N 12,1 C 18,6 C 36,2 km/h
06.07.2016 05:00 20,8 C 58 % 1013,3 hPa 0,0 l/m 12,9 km/h N 12,0 C 18,8 C 30,6 km/h
06.07.2016 06:00 20,0 C 61 % 1013,7 hPa 0,0 l/m 2,4 km/h N 12,3 C 20,0 C 18,5 km/h
06.07.2016 07:00 20,6 C 62 % 1013,8 hPa 0,0 l/m 6,4 km/h N 13,1 C 20,7 C 22,5 km/h
06.07.2016 08:00 21,4 C 61 % 1013,9 hPa 0,0 l/m 7,2 km/h N 13,4 C 21,1 C 20,9 km/h
06.07.2016 09:00 22,1 C 59 % 1014,1 hPa 0,0 l/m 8,9 km/h N 13,6 C 21,4 C 24,9 km/h
06.07.2016 10:00 22,9 C 56 % 1014,2 hPa 0,0 l/m 10,5 km/h N 13,5 C 21,7 C 32,2 km/h
06.07.2016 11:00 23,5 C 54 % 1014,5 hPa 0,0 l/m 10,4 km/h N 13,5 C 22,4 C 30,6 km/h
06.07.2016 12:00 23,5 C 53 % 1014,8 hPa 0,0 l/m 11,3 km/h N 13,4 C 22,3 C 38,7 km/h
06.07.2016 13:00 24,1 C 49 % 1014,8 hPa 0,0 l/m 11,3 km/h N 12,7 C 22,9 C 37,0 km/h
06.07.2016 14:00 24,3 C 49 % 1014,7 hPa 0,0 l/m 13,7 km/h N 12,8 C 22,6 C 39,4 km/h
06.07.2016 15:00 24,4 C 46 % 1014,7 hPa 0,0 l/m 13,7 km/h N 12,0 C 22,8 C 39,4 km/h
06.07.2016 16:00 24,2 C 44 % 1014,7 hPa 0,0 l/m 12,1 km/h N 11,2 C 22,8 C 34,6 km/h
06.07.2016 17:00 23,9 C 45 % 1014,6 hPa 0,0 l/m 8,1 km/h N 11,2 C 23,4 C 26,5 km/h
06.07.2016 18:00 23,7 C 46 % 1014,7 hPa 0,0 l/m 6,4 km/h N 11,4 C 23,7 C 23,3 km/h
06.07.2016 19:00 22,1 C 48 % 1015,2 hPa 0,0 l/m 4,8 km/h N 10,5 C 22,1 C 18,5 km/h
06.07.2016 20:00 21,5 C 48 % 1015,9 hPa 0,0 l/m 3,2 km/h N 10,0 C 21,5 C 17,7 km/h
06.07.2016 21:00 20,1 C 51 % 1016,8 hPa 0,0 l/m 0,0 km/h N 9,6 C 20,1 C 8,0 km/h
06.07.2016 22:00 18,9 C 55 % 1017,5 hPa 0,0 l/m 0,0 km/h N 9,5 C 18,9 C 4,8 km/h
06.07.2016 23:00 17,1 C 59 % 1018,3 hPa 0,0 l/m 0,0 km/h N 8,9 C 17,1 C 2,4 km/h
07.07.2016 00:00 16,5 C 60 % 1018,5 hPa 0,0 l/m 0,0 km/h N 8,5 C 16,5 C 3,2 km/h
07.07.2016 01:00 15,3 C 64 % 1018,8 hPa 0,0 l/m 0,0 km/h N 8,4 C 15,3 C 1,6 km/h
07.07.2016 02:00 16,2 C 60 % 1018,9 hPa 0,0 l/m 0,8 km/h N 8,3 C 16,2 C 10,5 km/h
07.07.2016 03:00 15,9 C 60 % 1018,8 hPa 0,0 l/m 0,8 km/h N 8,1 C 15,9 C 6,5 km/h
07.07.2016 04:00 16,0 C 59 % 1019,1 hPa 0,0 l/m 0,8 km/h N 8,0 C 16,0 C 9,6 km/h
07.07.2016 05:00 14,6 C 65 % 1019,7 hPa 0,0 l/m 0,0 km/h N 8,1 C 14,6 C 5,6 km/h
07.07.2016 06:00 15,8 C 61 % 1020,1 hPa 0,0 l/m 3,2 km/h N 8,2 C 15,8 C 13,7 km/h
07.07.2016 07:00 16,8 C 59 % 1020,5 hPa 0,0 l/m 4,0 km/h N 8,6 C 16,8 C 14,5 km/h
07.07.2016 08:00 17,8 C 58 % 1020,7 hPa 0,0 l/m 5,6 km/h N 9,3 C 17,8 C 17,7 km/h
07.07.2016 09:00 18,9 C 56 % 1020,7 hPa 0,0 l/m 4,0 km/h N 9,8 C 18,9 C 16,1 km/h
07.07.2016 10:00 19,8 C 54 % 1020,8 hPa 0,0 l/m 4,8 km/h N 10,0 C 19,8 C 18,5 km/h
07.07.2016 11:00 21,1 C 54 % 1020,8 hPa 0,0 l/m 5,6 km/h N 11,3 C 21,1 C 19,3 km/h
07.07.2016 12:00 22,0 C 51 % 1020,4 hPa 0,0 l/m 5,6 km/h N 11,2 C 22,0 C 21,7 km/h
07.07.2016 13:00 22,5 C 51 % 1020,1 hPa 0,0 l/m 5,6 km/h N 11,7 C 22,5 C 20,9 km/h
07.07.2016 14:00 23,0 C 48 % 1019,6 hPa 0,0 l/m 6,4 km/h N 11,4 C 23,0 C 20,1 km/h
07.07.2016 15:00 23,5 C 50 % 1019,1 hPa 0,0 l/m 5,6 km/h N 12,3 C 23,5 C 20,1 km/h
07.07.2016 16:00 23,3 C 49 % 1018,8 hPa 0,0 l/m 5,6 km/h N 11,8 C 23,3 C 20,9 km/h
07.07.2016 17:00 23,6 C 48 % 1018,5 hPa 0,0 l/m 5,6 km/h N 11,8 C 23,7 C 20,1 km/h
07.07.2016 18:00 24,3 C 46 % 1018,3 hPa 0,0 l/m 5,6 km/h N 11,9 C 24,3 C 17,7 km/h
07.07.2016 19:00 23,9 C 48 % 1018,4 hPa 0,0 l/m 3,2 km/h N 12,0 C 23,9 C 12,1 km/h
07.07.2016 20:00 23,1 C 50 % 1018,5 hPa 0,0 l/m 0,8 km/h N 12,1 C 23,1 C 6,4 km/h
07.07.2016 21:00 20,8 C 58 % 1018,9 hPa 0,0 l/m 0,0 km/h N 12,2 C 20,8 C 1,6 km/h
07.07.2016 22:00 18,2 C 68 % 1019,3 hPa 0,0 l/m 0,0 km/h N 12,0 C 18,2 C 0,8 km/h
07.07.2016 23:00 16,5 C 73 % 1019,3 hPa 0,0 l/m 0,0 km/h N 11,7 C 16,5 C 1,6 km/h
08.07.2016 00:00 15,8 C 76 % 1019,5 hPa 0,0 l/m 0,0 km/h N 11,4 C 15,8 C 1,6 km/h
08.07.2016 01:00 15,3 C 77 % 1019,5 hPa 0,0 l/m 0,0 km/h N 11,2 C 15,3 C 2,4 km/h
08.07.2016 02:00 14,7 C 78 % 1019,3 hPa 0,0 l/m 0,0 km/h N 10,8 C 14,7 C 0,8 km/h
08.07.2016 03:00 13,9 C 79 % 1019,5 hPa 0,0 l/m 0,0 km/h N 10,2 C 13,9 C 0,0 km/h
08.07.2016 04:00 12,9 C 80 % 1019,0 hPa 0,0 l/m 0,0 km/h N 9,6 C 12,9 C 0,0 km/h
08.07.2016 05:00 12,2 C 82 % 1019,3 hPa 0,0 l/m 0,0 km/h N 9,1 C 12,2 C 0,0 km/h
08.07.2016 06:00 12,4 C 82 % 1019,3 hPa 0,0 l/m 0,0 km/h N 9,5 C 12,4 C 0,0 km/h
08.07.2016 07:00 14,0 C 82 % 1019,3 hPa 0,0 l/m 0,0 km/h N 10,9 C 14,0 C 0,8 km/h
08.07.2016 08:00 17,3 C 78 % 1018,9 hPa 0,0 l/m 0,0 km/h N 13,3 C 17,3 C 1,6 km/h
08.07.2016 09:00 21,9 C 66 % 1018,3 hPa 0,0 l/m 0,0 km/h N 15,1 C 21,9 C 3,2 km/h
08.07.2016 10:00 24,5 C 58 % 1018,0 hPa 0,0 l/m 0,2 km/h N 15,6 C 24,5 C 5,3 km/h
08.07.2016 11:00 26,6 C 57 % 1017,6 hPa 0,0 l/m 0,7 km/h N 17,3 C 26,6 C 6,0 km/h
08.07.2016 12:00 27,8 C 53 % 1016,8 hPa 0,0 l/m 1,0 km/h N 17,3 C 27,8 C 8,0 km/h
08.07.2016 13:00 28,5 C 50 % 1016,1 hPa 0,0 l/m 1,0 km/h N 17,0 C 28,5 C 6,4 km/h
08.07.2016 14:00 29,1 C 48 % 1015,5 hPa 0,0 l/m 1,0 km/h N 16,9 C 29,1 C 9,3 km/h
08.07.2016 15:00 28,7 C 48 % 1015,0 hPa 0,0 l/m 1,5 km/h N 16,7 C 28,7 C 8,9 km/h
08.07.2016 16:00 28,5 C 50 % 1014,4 hPa 0,0 l/m 1,1 km/h N 17,0 C 28,5 C 7,7 km/h
08.07.2016 17:00 28,9 C 49 % 1014,1 hPa 0,0 l/m 0,3 km/h N 17,0 C 28,9 C 4,8 km/h
08.07.2016 18:00 28,8 C 45 % 1014,0 hPa 0,0 l/m 0,8 km/h N 15,4 C 28,8 C 5,6 km/h
08.07.2016 19:00 28,0 C 42 % 1013,8 hPa 0,0 l/m 0,4 km/h N 13,9 C 28,0 C 4,4 km/h
08.07.2016 20:00 25,2 C 55 % 1013,7 hPa 0,0 l/m 0,0 km/h N 15,4 C 25,2 C 0,4 km/h
08.07.2016 21:00 22,6 C 61 % 1013,9 hPa 0,0 l/m 0,0 km/h N 14,6 C 22,6 C 0,4 km/h
08.07.2016 22:00 20,6 C 69 % 1014,3 hPa 0,0 l/m 0,0 km/h N 14,6 C 20,6 C 0,8 km/h
08.07.2016 23:00 20,2 C 69 % 1014,2 hPa 0,0 l/m 0,0 km/h N 14,3 C 20,2 C 0,4 km/h
09.07.2016 00:00 19,9 C 68 % 1014,0 hPa 0,0 l/m 0,0 km/h N 13,9 C 19,9 C 0,8 km/h
09.07.2016 01:00 20,0 C 68 % 1013,9 hPa 0,0 l/m 0,0 km/h N 13,8 C 20,0 C 0,4 km/h
09.07.2016 02:00 20,2 C 66 % 1014,2 hPa 0,0 l/m 0,0 km/h N 13,7 C 20,2 C 1,6 km/h
09.07.2016 03:00 20,7 C 66 % 1014,7 hPa 0,0 l/m 0,7 km/h N 14,1 C 20,7 C 3,2 km/h
09.07.2016 04:00 22,7 C 57 % 1014,9 hPa 0,0 l/m 6,6 km/h N 13,6 C 22,4 C 17,3 km/h
09.07.2016 05:00 22,2 C 60 % 1015,3 hPa 0,0 l/m 2,6 km/h N 14,1 C 22,2 C 10,9 km/h
09.07.2016 06:00 21,6 C 65 % 1015,8 hPa 0,0 l/m 3,9 km/h N 14,8 C 21,6 C 13,7 km/h
09.07.2016 07:00 20,7 C 71 % 1016,3 hPa 0,0 l/m 3,3 km/h N 15,1 C 20,7 C 15,3 km/h
09.07.2016 08:00 20,0 C 75 % 1016,6 hPa 0,0 l/m 1,7 km/h N 15,3 C 20,0 C 12,1 km/h
09.07.2016 09:00 20,2 C 76 % 1016,8 hPa 0,0 l/m 1,1 km/h N 15,8 C 20,2 C 10,1 km/h
09.07.2016 10:00 21,7 C 69 % 1016,9 hPa 0,0 l/m 8,2 km/h N 15,6 C 21,1 C 25,4 km/h
09.07.2016 11:00 23,7 C 65 % 1016,9 hPa 0,0 l/m 6,6 km/h N 16,8 C 23,6 C 24,1 km/h
09.07.2016 12:00 24,7 C 60 % 1016,6 hPa 0,0 l/m 7,3 km/h N 16,3 C 24,4 C 23,3 km/h
09.07.2016 13:00 25,1 C 59 % 1016,5 hPa 0,0 l/m 10,6 km/h N 16,4 C 24,2 C 27,8 km/h
09.07.2016 14:00 25,0 C 57 % 1016,1 hPa 0,0 l/m 10,1 km/h N 15,8 C 24,1 C 27,4 km/h
09.07.2016 15:00 24,8 C 58 % 1015,8 hPa 0,0 l/m 4,9 km/h N 15,8 C 24,6 C 18,9 km/h
09.07.2016 16:00 25,5 C 58 % 1015,5 hPa 0,0 l/m 4,8 km/h N 16,5 C 25,5 C 14,1 km/h
09.07.2016 17:00 25,9 C 58 % 1015,2 hPa 0,0 l/m 2,2 km/h N 16,9 C 25,9 C 10,1 km/h
09.07.2016 18:00 25,8 C 57 % 1015,1 hPa 0,0 l/m 1,0 km/h N 16,5 C 25,8 C 7,6 km/h
09.07.2016 19:00 25,4 C 55 % 1015,1 hPa 0,0 l/m 2,0 km/h N 15,7 C 25,4 C 8,4 km/h
09.07.2016 20:00 25,0 C 54 % 1015,5 hPa 0,0 l/m 0,6 km/h N 15,0 C 25,0 C 5,2 km/h
09.07.2016 21:00 24,0 C 56 % 1016,1 hPa 0,0 l/m 0,3 km/h N 14,7 C 24,0 C 4,0 km/h
09.07.2016 22:00 21,6 C 66 % 1016,6 hPa 0,0 l/m 0,0 km/h N 14,9 C 21,6 C 0,4 km/h
09.07.2016 23:00 19,6 C 72 % 1016,8 hPa 0,0 l/m 0,4 km/h N 14,4 C 19,6 C 3,2 km/h
10.07.2016 00:00 19,8 C 70 % 1017,4 hPa 0,0 l/m 0,0 km/h N 14,1 C 19,8 C 1,6 km/h
10.07.2016 01:00 18,8 C 72 % 1017,6 hPa 0,0 l/m 0,0 km/h N 13,6 C 18,8 C 0,0 km/h
10.07.2016 02:00 17,2 C 76 % 1017,8 hPa 0,0 l/m 0,0 km/h N 12,9 C 17,2 C 0,0 km/h
10.07.2016 03:00 16,5 C 79 % 1017,7 hPa 0,0 l/m 0,0 km/h N 12,8 C 16,5 C 1,2 km/h
10.07.2016 04:00 16,6 C 78 % 1017,4 hPa 0,0 l/m 0,0 km/h N 12,7 C 16,6 C 1,6 km/h
10.07.2016 05:00 16,5 C 78 % 1017,6 hPa 0,0 l/m 0,0 km/h N 12,7 C 16,5 C 2,0 km/h
10.07.2016 06:00 16,4 C 78 % 1017,8 hPa 0,0 l/m 0,0 km/h N 12,5 C 16,4 C 0,4 km/h
10.07.2016 07:00 17,1 C 79 % 1018,0 hPa 0,0 l/m 0,0 km/h N 13,4 C 17,1 C 0,0 km/h
10.07.2016 08:00 20,5 C 72 % 1018,1 hPa 0,0 l/m 0,0 km/h N 15,2 C 20,5 C 1,6 km/h
10.07.2016 09:00 24,4 C 56 % 1017,8 hPa 0,0 l/m 0,6 km/h N 15,0 C 24,4 C 4,0 km/h
10.07.2016 10:00 26,9 C 52 % 1017,3 hPa 0,0 l/m 1,3 km/h N 16,2 C 26,9 C 7,2 km/h
10.07.2016 11:00 28,2 C 48 % 1017,0 hPa 0,0 l/m 0,9 km/h N 16,2 C 28,2 C 6,0 km/h
10.07.2016 12:00 29,5 C 45 % 1016,6 hPa 0,0 l/m 1,1 km/h N 16,4 C 29,5 C 8,9 km/h
10.07.2016 13:00 30,2 C 46 % 1015,8 hPa 0,0 l/m 1,6 km/h N 17,1 C 30,2 C 8,0 km/h
10.07.2016 14:00 31,0 C 45 % 1015,1 hPa 0,0 l/m 2,2 km/h N 17,5 C 31,0 C 9,3 km/h
10.07.2016 15:00 31,0 C 45 % 1014,5 hPa 0,0 l/m 1,1 km/h N 17,6 C 31,0 C 8,4 km/h
10.07.2016 16:00 30,1 C 47 % 1014,1 hPa 0,0 l/m 0,8 km/h N 17,3 C 30,1 C 6,8 km/h
10.07.2016 17:00 29,9 C 47 % 1013,7 hPa 0,0 l/m 1,1 km/h N 17,3 C 29,9 C 6,8 km/h
10.07.2016 18:00 30,7 C 46 % 1013,2 hPa 0,0 l/m 1,1 km/h N 17,6 C 30,7 C 7,2 km/h
10.07.2016 19:00 30,6 C 47 % 1012,7 hPa 0,0 l/m 0,5 km/h N 17,8 C 30,6 C 6,0 km/h
10.07.2016 20:00 29,4 C 50 % 1012,4 hPa 0,0 l/m 0,0 km/h N 17,9 C 29,4 C 2,0 km/h
10.07.2016 21:00 25,9 C 59 % 1012,5 hPa 0,0 l/m 0,0 km/h N 17,3 C 25,9 C 0,4 km/h
10.07.2016 22:00 23,3 C 68 % 1012,4 hPa 0,0 l/m 0,1 km/h N 17,1 C 23,3 C 2,0 km/h
10.07.2016 23:00 22,4 C 74 % 1012,2 hPa 0,0 l/m 0,0 km/h N 17,4 C 22,4 C 0,8 km/h
Min-Datum _ 08.07.16 05.07.16 05.07.16 - 04.07.16 - 07.07.16 08.07.16 04.07.16
_ Min-Zeit 05:30 18:00 20:30 - 01:30 - 03:30 05:30 04:30
Minimum _ 12,1 C 35 % 1010,8 hPa - 0,0 km/h - 7,9 C 12,1 C 0,0 km/h
Max-Datum _ 10.07.16 04.07.16 04.07.16 04.07.16 06.07.16 - 10.07.16 10.07.16 06.07.16
_ Max-Zeit 15:00 06:30 07:30 00:00 04:30 - 14:04 15:00 12:00
Maximum _ 31,4 C 82 % 1022,1 hPa 0,0 l/m 16,1 km/h
N
- 18,5 C 31,4 C 43,5 km/h
N
Durchschnitt _ 21,7 C 61 % 1016,7 hPa #0,0 l/m 2,3 km/h N 13,5 C 21,6 C 9,5 km/h